Trois-Pistoles, Canada
Current Conditions -  °F | °C
As of 2:00 PM on Thursday 18 Dec 2014 (Local Time) from CYYY Reporting Station
Light Snow Light Snow  
Wind Chill: 12°   Ceiling: 500
Heat Index: 27°   Visibility: 0.62mi
Dew Point: 27°   Wind: 24mph
Humidity: 100%   Direction: 10°N
Pressure: 29.71"   Gusts: 31mph
Location:  48.12°N, 69.17°W
Report Text: CYYY 181900Z 01021G27KT 5/8SM R06/4500FT/N -SN BLSN VV005 M03/M03 A2971 RMK BLSN8 SLP063
Loading
Personal Weather Stations






























Interactive Weather Map New forecast layout! Learn more

10-Day Weather Forecast

Advertisements
Track Severe Weather on mobile